Time;durP1;ratioP1;P1;durP2;ratioP2;P2;SDS_P1;SDS_P2;PMS_P1;PMS_P2;Temp;Humidity;BMP_temperature;BMP_pressure;BME280_temperature;BME280_humidity;BME280_pressure;Samples;Min_cycle;Max_cycle;Signal;HPM_P1;HPM_P2
2021/05/10 00:02:13;;;;;;;20.32;16.07;;;;;;;6.75;69.92;101506.44;1734290;80;21204;-41
2021/05/10 00:04:41;;;;;;;19.75;15.05;;;;;;;6.75;69.92;101506.44;1744869;80;21184;-41
2021/05/10 00:07:09;;;;;;;17.95;13.15;;;;;;;6.72;70.20;101507.86;1749423;80;21150;-40
2021/05/10 00:09:37;;;;;;;17.85;13.85;;;;;;;6.69;70.41;101510.13;1747609;80;21192;-41
2021/05/10 00:12:05;;;;;;;18.75;12.07;;;;;;;6.69;70.41;101510.13;1724633;80;21141;-40
2021/05/10 00:14:48;;;;;;;15.55;10.93;;;;;;;6.68;70.36;101504.89;1736567;80;21199;-40
2021/05/10 00:17:15;;;;;;;13.15;9.40;;;;;;;6.64;70.44;101504.08;1681956;83;21785;-41
2021/05/10 00:19:45;;;;;;;12.75;8.75;;;;;;;6.59;70.64;101505.12;1667662;85;21185;-40
2021/05/10 00:22:12;;;;;;;14.28;9.60;;;;;;;6.58;70.40;101512.20;1672773;84;21193;-40
2021/05/10 00:24:41;;;;;;;10.55;7.75;;;;;;;6.58;70.40;101512.20;1694351;83;21198;-40
2021/05/10 00:27:09;;;;;;;12.80;8.25;;;;;;;6.57;70.55;101509.58;1707312;83;21169;-39
2021/05/10 00:29:37;;;;;;;11.33;7.60;;;;;;;6.55;70.47;101514.05;1715081;83;21565;-40
2021/05/10 00:32:05;;;;;;;10.65;8.48;;;;;;;6.51;70.52;101506.64;1713364;82;21200;-39
2021/05/10 00:34:32;;;;;;;9.75;7.53;;;;;;;6.49;70.60;101509.78;1686441;83;21703;-40
2021/05/10 00:37:00;;;;;;;9.98;7.22;;;;;;;6.47;70.67;101507.61;1696562;83;21175;-41
2021/05/10 00:39:28;;;;;;;10.23;7.20;;;;;;;6.44;70.71;101505.05;1705817;82;21197;-41
2021/05/10 00:41:56;;;;;;;11.15;7.58;;;;;;;6.41;70.68;101509.11;1677519;83;21248;-42
2021/05/10 00:44:24;;;;;;;10.82;7.37;;;;;;;6.37;70.75;101513.59;1679162;83;21646;-41
2021/05/10 00:46:55;;;;;;;9.23;7.58;;;;;;;6.36;70.81;101517.63;1682450;83;21706;-41
2021/05/10 00:49:23;;;;;;;12.53;6.75;;;;;;;6.37;71.26;101518.89;1681409;82;21160;-41
2021/05/10 00:51:50;;;;;;;10.43;7.22;;;;;;;6.37;71.26;101518.89;1683274;82;21173;-41
2021/05/10 00:54:18;;;;;;;10.40;7.08;;;;;;;6.31;71.12;101516.88;1678826;83;21618;-41
2021/05/10 00:56:45;;;;;;;10.08;7.50;;;;;;;6.31;71.12;101516.88;1717225;81;21188;-41
2021/05/10 00:59:13;;;;;;;10.88;7.60;;;;;;;6.28;71.34;101520.46;1653852;84;21197;-42
2021/05/10 01:01:42;;;;;;;10.28;7.42;;;;;;;6.25;71.51;101520.08;1718284;81;21162;-40
2021/05/10 01:04:09;;;;;;;10.70;7.90;;;;;;;6.24;71.56;101524.08;1668441;83;21654;-40
2021/05/10 01:06:37;;;;;;;10.75;8.48;;;;;;;6.23;71.71;101524.55;1672977;84;21200;-40
2021/05/10 01:09:06;;;;;;;11.10;7.72;;;;;;;6.22;71.72;101517.94;1673950;83;21189;-41
2021/05/10 01:11:34;;;;;;;9.43;7.33;;;;;;;6.19;71.69;101520.67;1690426;83;21153;-40
2021/05/10 01:14:02;;;;;;;10.05;7.87;;;;;;;6.15;71.58;101520.31;1689859;83;21194;-41
2021/05/10 01:16:30;;;;;;;13.68;7.62;;;;;;;6.06;71.69;101529.36;1682085;83;21165;-42
2021/05/10 01:18:58;;;;;;;11.25;7.65;;;;;;;5.98;71.76;101526.89;1708306;81;21327;-43
2021/05/10 01:21:25;;;;;;;9.80;6.85;;;;;;;5.97;71.95;101526.92;1688943;83;21176;-40
2021/05/10 01:23:53;;;;;;;11.97;8.08;;;;;;;5.96;72.05;101523.41;1680441;84;21198;-40
2021/05/10 01:26:21;;;;;;;12.53;8.85;;;;;;;5.98;72.04;101531.33;1690100;83;21176;-43
2021/05/10 01:28:48;;;;;;;9.00;6.83;;;;;;;6.00;72.09;101532.17;1691305;83;21233;-44
2021/05/10 01:31:16;;;;;;;12.50;7.85;;;;;;;5.98;72.11;101538.81;1655834;83;21625;-41
2021/05/10 01:33:44;;;;;;;9.25;7.37;;;;;;;5.98;72.08;101536.62;1714090;82;21653;-41
2021/05/10 01:36:12;;;;;;;9.98;7.12;;;;;;;5.99;71.98;101534.38;1672331;83;21222;-40
2021/05/10 01:38:40;;;;;;;9.83;7.42;;;;;;;5.99;71.95;101537.03;1671794;83;21188;-41
2021/05/10 01:41:08;;;;;;;9.60;7.20;;;;;;;5.98;72.02;101534.84;1670554;83;21229;-39
2021/05/10 01:43:36;;;;;;;10.90;8.23;;;;;;;5.99;72.02;101543.19;1713452;82;21964;-39
2021/05/10 01:46:03;;;;;;;11.12;7.45;;;;;;;5.98;72.00;101540.59;1676170;83;21188;-39
2021/05/10 01:48:31;;;;;;;9.90;7.60;;;;;;;5.95;72.00;101545.50;1667547;84;22420;-39
2021/05/10 01:50:59;;;;;;;9.20;7.65;;;;;;;5.94;71.96;101543.74;1674792;83;21615;-39
2021/05/10 01:53:27;;;;;;;10.55;8.73;;;;;;;5.86;71.89;101547.86;1697798;82;21175;-41
2021/05/10 01:55:54;;;;;;;9.80;7.60;;;;;;;5.82;71.87;101547.95;1676781;84;21219;-39
2021/05/10 01:58:22;;;;;;;9.80;7.08;;;;;;;5.82;71.97;101554.57;1678581;83;21204;-40
2021/05/10 02:00:50;;;;;;;10.88;8.15;;;;;;;5.83;72.03;101553.68;1690258;83;21178;-40
2021/05/10 02:03:21;;;;;;;11.43;8.53;;;;;;;5.82;72.04;101556.79;1659705;84;21415;-40
2021/05/10 02:05:52;;;;;;;9.43;7.53;;;;;;;5.81;72.00;101556.35;1669630;83;21182;-40
2021/05/10 02:08:20;;;;;;;9.88;7.50;;;;;;;5.79;71.98;101558.16;1679002;83;21181;-41
2021/05/10 02:10:51;;;;;;;8.73;7.25;;;;;;;5.79;71.91;101564.77;1669577;83;21211;-40
2021/05/10 02:13:24;;;;;;;11.00;6.78;;;;;;;5.78;71.91;101556.88;1655755;84;21144;-41
2021/05/10 02:15:59;;;;;;;9.60;7.10;;;;;;;5.77;71.81;101557.34;1716372;83;21170;-42
2021/05/10 02:18:36;;;;;;;8.83;6.97;;;;;;;5.77;71.81;101557.34;1676440;83;21181;-44
2021/05/10 02:21:04;;;;;;;13.77;6.73;;;;;;;5.79;71.86;101562.58;1680813;83;21178;-41
2021/05/10 02:23:33;;;;;;;8.95;7.50;;;;;;;5.77;71.80;101564.39;1693580;83;21197;-42
2021/05/10 02:26:06;;;;;;;10.53;7.95;;;;;;;5.74;71.75;101569.30;1681970;83;21719;-41
2021/05/10 02:28:34;;;;;;;10.43;7.00;;;;;;;5.74;71.77;101567.11;1681724;83;21149;-41
2021/05/10 02:31:02;;;;;;;7.58;6.53;;;;;;;5.71;71.82;101575.98;1679099;84;21896;-40
2021/05/10 02:33:32;;;;;;;11.18;6.80;;;;;;;5.70;71.85;101571.61;1673281;84;21168;-40
2021/05/10 02:36:00;;;;;;;8.73;7.17;;;;;;;5.72;71.83;101574.20;1711785;82;21188;-38
2021/05/10 02:38:28;;;;;;;11.10;6.42;;;;;;;5.71;71.82;101569.83;1665416;84;21192;-39
2021/05/10 02:40:57;;;;;;;8.90;7.42;;;;;;;5.70;71.82;101573.39;1717585;81;21174;-39
2021/05/10 02:43:25;;;;;;;13.45;7.17;;;;;;;5.67;71.82;101574.75;1674000;83;21146;-41
2021/05/10 02:45:53;;;;;;;7.72;6.30;;;;;;;5.65;71.91;101573.48;1690144;83;21204;-39
2021/05/10 02:48:21;;;;;;;8.85;6.75;;;;;;;5.62;71.96;101578.38;1703812;81;21133;-43
2021/05/10 02:50:49;;;;;;;7.95;6.12;;;;;;;5.60;72.08;101580.64;1679203;83;21618;-41
2021/05/10 02:53:17;;;;;;;8.68;6.40;;;;;;;5.60;72.18;101581.51;1691140;83;21904;-40
2021/05/10 02:55:44;;;;;;;21.87;15.15;;;;;;;5.61;72.22;101581.05;1686269;83;21623;-40
2021/05/10 02:58:12;;;;;;;13.15;9.90;;;;;;;5.61;72.20;101587.66;1691207;83;22184;-40
2021/05/10 03:00:40;;;;;;;10.75;7.92;;;;;;;5.62;72.28;101589.43;1677657;83;21626;-39
2021/05/10 03:03:08;;;;;;;8.73;7.00;;;;;;;5.62;72.41;101590.30;1683884;83;21197;-40
2021/05/10 03:05:36;;;;;;;10.60;6.85;;;;;;;5.64;72.61;101595.53;1723350;81;21181;-40
2021/05/10 03:08:04;;;;;;;8.73;6.50;;;;;;;5.64;72.74;101596.44;1689175;82;21162;-42
2021/05/10 03:10:32;;;;;;;9.85;7.12;;;;;;;5.65;72.84;101598.63;1687194;82;21618;-41
2021/05/10 03:13:00;;;;;;;7.87;7.03;;;;;;;5.66;72.96;101592.41;1706702;81;21189;-39
2021/05/10 03:15:28;;;;;;;11.25;8.05;;;;;;;5.66;73.15;101599.03;1665942;84;21189;-40
2021/05/10 03:17:55;;;;;;;10.55;7.72;;;;;;;5.67;73.39;101593.27;1706591;81;21125;-39
2021/05/10 03:20:23;;;;;;;10.30;7.95;;;;;;;5.69;73.57;101597.63;1700864;83;21331;-40
2021/05/10 03:22:52;;;;;;;10.48;8.10;;;;;;;5.73;73.64;101603.30;1713678;81;21187;-40
2021/05/10 03:25:21;;;;;;;10.40;8.25;;;;;;;5.74;73.73;101600.19;1671731;83;21205;-41
2021/05/10 03:27:50;;;;;;;10.28;7.53;;;;;;;5.76;73.88;101603.23;1687482;83;21684;-41
2021/05/10 03:30:23;;;;;;;9.53;8.30;;;;;;;5.78;74.05;101608.50;1668219;83;21189;-40
2021/05/10 03:32:52;;;;;;;10.88;8.25;;;;;;;5.81;74.29;101609.75;1708036;81;21153;-40
2021/05/10 03:35:20;;;;;;;11.38;8.85;;;;;;;5.85;74.58;101611.45;1718304;81;21204;-40
2021/05/10 03:37:50;;;;;;;10.32;8.03;;;;;;;5.88;74.89;101610.05;1693286;83;21202;-40
2021/05/10 03:40:19;;;;;;;8.18;7.30;;;;;;;5.94;75.14;101609.94;1687907;83;21176;-40
2021/05/10 03:42:47;;;;;;;10.63;7.62;;;;;;;5.98;75.33;101618.25;1709940;81;21172;-41
2021/05/10 03:45:16;;;;;;;10.18;8.40;;;;;;;6.04;75.54;101614.13;1674551;83;21218;-42
2021/05/10 03:47:44;;;;;;;9.00;7.67;;;;;;;6.11;75.66;101619.31;1690227;82;21601;-42
2021/05/10 03:50:16;;;;;;;9.78;7.75;;;;;;;6.17;75.83;101620.02;1674412;83;21174;-42
2021/05/10 03:52:44;;;;;;;10.32;8.50;;;;;;;6.23;75.99;101620.37;1707301;83;21186;-43
2021/05/10 03:55:14;;;;;;;11.80;8.40;;;;;;;6.28;76.18;101625.97;1672696;83;21186;-44
2021/05/10 03:57:42;;;;;;;10.80;8.25;;;;;;;6.34;76.32;101627.60;1678717;83;21174;-42
2021/05/10 04:00:13;;;;;;;12.75;9.63;;;;;;;6.41;76.43;101632.32;1684453;83;21212;-40
2021/05/10 04:02:43;;;;;;;10.50;9.30;;;;;;;6.46;76.56;101632.63;1679736;83;21122;-41
2021/05/10 04:07:57;;;;;;;13.58;9.95;;;;;;;6.60;76.81;101631.42;1687016;82;21152;-41
2021/05/10 04:10:55;;;;;;;14.83;9.08;;;;;;;6.66;77.04;101628.18;1689316;82;21170;-42
2021/05/10 04:15:57;;;;;;;10.68;8.25;;;;;;;6.86;77.26;101632.12;1679666;83;21172;-41
2021/05/10 04:18:25;;;;;;;11.22;9.18;;;;;;;6.96;77.41;101627.47;1683215;83;21252;-41
2021/05/10 04:20:53;;;;;;;13.00;9.28;;;;;;;7.03;77.59;101624.62;1667931;83;21173;-41
2021/05/10 04:23:21;;;;;;;9.78;7.92;;;;;;;7.10;77.72;101625.31;1694729;82;21173;-40
2021/05/10 04:25:53;;;;;;;11.12;8.75;;;;;;;7.18;77.82;101634.40;1669091;83;21795;-39
2021/05/10 04:28:21;;;;;;;13.25;8.60;;;;;;;7.25;77.87;101635.52;1714082;82;21141;-40
2021/05/10 04:30:50;;;;;;;11.03;8.90;;;;;;;7.29;77.88;101631.89;1671488;83;21682;-41
2021/05/10 04:33:30;;;;;;;13.13;9.33;;;;;;;7.37;77.87;101635.66;1691914;83;21681;-41
2021/05/10 04:35:57;;;;;;;12.28;9.43;;;;;;;7.43;77.81;101644.77;1681870;83;21172;-47
2021/05/10 04:38:25;;;;;;;12.53;9.60;;;;;;;7.57;78.02;101646.60;1690006;83;21205;-42
2021/05/10 04:40:55;;;;;;;10.28;8.60;;;;;;;7.57;78.02;101646.60;1693143;83;21177;-44
2021/05/10 04:43:23;;;;;;;8.95;7.95;;;;;;;7.63;78.08;101646.88;1719147;81;22210;-42
2021/05/10 04:45:54;;;;;;;10.40;8.30;;;;;;;7.71;78.22;101651.55;1678664;83;21161;-46
2021/05/10 04:48:21;;;;;;;9.70;8.08;;;;;;;7.79;78.45;101653.52;1671225;83;21164;-52
2021/05/10 04:50:49;;;;;;;10.35;7.08;;;;;;;7.88;78.66;101659.01;1691339;83;21174;-45
2021/05/10 04:53:16;;;;;;;10.50;7.62;;;;;;;7.96;78.75;101653.05;1693472;82;21175;-42
2021/05/10 04:55:44;;;;;;;10.38;7.20;;;;;;;8.05;78.80;101658.53;1704804;82;21165;-42
2021/05/10 04:58:12;;;;;;;8.53;6.58;;;;;;;8.15;78.67;101658.67;1710590;82;21113;-42
2021/05/10 05:00:40;;;;;;;7.55;6.35;;;;;;;8.24;78.51;101659.73;1681945;84;21632;-44
2021/05/10 05:03:08;;;;;;;9.75;7.20;;;;;;;8.35;78.50;101658.07;1693494;83;21185;-43
2021/05/10 05:05:36;;;;;;;8.13;6.45;;;;;;;8.42;78.36;101649.48;1681596;83;21188;-43
2021/05/10 05:08:04;;;;;;;7.70;6.55;;;;;;;8.53;78.17;101659.31;1686666;83;21714;-43
2021/05/10 05:10:32;;;;;;;8.25;6.17;;;;;;;8.62;78.00;101664.82;1685012;82;21157;-42
2021/05/10 05:13:00;;;;;;;7.60;5.95;;;;;;;8.72;78.01;101662.28;1688988;82;21166;-42
2021/05/10 05:15:28;;;;;;;8.98;6.15;;;;;;;8.83;77.92;101663.25;1691979;83;21202;-44
2021/05/10 05:17:56;;;;;;;6.80;5.47;;;;;;;8.91;77.84;101666.98;1687972;82;21193;-45
2021/05/10 05:20:23;;;;;;;6.83;5.75;;;;;;;9.00;77.57;101663.56;1702984;81;21150;-42
2021/05/10 05:22:51;;;;;;;7.20;5.33;;;;;;;9.09;77.15;101662.38;1680162;83;21245;-43
2021/05/10 05:25:19;;;;;;;8.75;6.22;;;;;;;9.19;77.01;101660.28;1675143;83;21161;-43
2021/05/10 05:27:47;;;;;;;7.25;5.78;;;;;;;9.27;76.71;101665.77;1702619;82;21626;-41
2021/05/10 05:30:15;;;;;;;8.28;6.40;;;;;;;9.35;76.62;101657.95;1679814;83;21175;-40
2021/05/10 05:32:43;;;;;;;6.47;5.60;;;;;;;9.42;76.33;101652.35;1718961;83;21484;-41
2021/05/10 05:35:12;;;;;;;7.12;5.45;;;;;;;9.52;75.65;101654.23;1715232;82;21153;-41
2021/05/10 05:37:40;;;;;;;7.37;5.22;;;;;;;9.62;75.46;101659.63;1717745;82;21145;-41
2021/05/10 05:40:09;;;;;;;7.72;5.05;;;;;;;9.71;74.72;101659.78;1679164;83;21940;-42
2021/05/10 05:42:37;;;;;;;6.67;5.08;;;;;;;9.79;74.11;101657.70;1668976;83;21193;-42
2021/05/10 05:45:07;;;;;;;5.37;4.58;;;;;;;9.87;73.59;101658.75;1670835;81;22035;-45
2021/05/10 05:47:35;;;;;;;6.67;4.03;;;;;;;9.95;72.90;101657.99;1683801;83;21468;-43
2021/05/10 05:50:04;;;;;;;5.15;3.98;;;;;;;10.05;72.50;101654.53;1684092;83;21983;-42
2021/05/10 05:52:32;;;;;;;5.85;4.12;;;;;;;10.13;71.44;101653.33;1689946;83;21596;-42
2021/05/10 05:55:01;;;;;;;7.20;4.30;;;;;;;10.23;70.90;101656.95;1642007;83;21183;-42
2021/05/10 05:57:28;;;;;;;7.33;6.20;;;;;;;10.30;70.73;101655.35;1675316;83;21253;-44
2021/05/10 06:00:01;;;;;;;6.10;4.42;;;;;;;10.39;70.84;101656.81;1678216;83;21185;-44
2021/05/10 06:02:26;;;;;;;4.75;3.52;;;;;;;10.48;70.12;101657.80;1676885;83;21182;-44
2021/05/10 06:04:55;;;;;;;4.70;3.08;;;;;;;10.57;69.62;101653.87;1673312;83;21572;-44
2021/05/10 06:07:24;;;;;;;4.62;3.02;;;;;;;10.65;68.54;101656.23;1681003;83;21176;-41
2021/05/10 06:09:53;;;;;;;4.72;2.95;;;;;;;10.72;67.58;101649.72;1672223;83;21214;-41
2021/05/10 06:12:21;;;;;;;7.92;3.50;;;;;;;10.81;66.67;101658.23;1659056;83;21350;-42
2021/05/10 06:14:49;;;;;;;4.67;3.22;;;;;;;10.90;66.22;101660.97;1669745;84;21198;-40
2021/05/10 06:17:16;;;;;;;3.72;2.87;;;;;;;10.99;65.78;101658.41;1673618;84;21485;-41
2021/05/10 06:19:44;;;;;;;5.78;3.65;;;;;;;11.08;65.67;101651.80;1704901;81;21158;-41
2021/05/10 06:22:12;;;;;;;5.08;3.25;;;;;;;11.16;65.92;101653.22;1701952;81;21173;-45
2021/05/10 06:24:40;;;;;;;4.78;3.35;;;;;;;11.25;65.38;101655.95;1693301;83;21307;-42
2021/05/10 06:27:08;;;;;;;4.50;3.12;;;;;;;11.35;64.76;101652.42;1684126;83;21189;-41
2021/05/10 06:29:35;;;;;;;3.58;2.52;;;;;;;11.44;63.23;101651.56;1691796;83;21138;-41
2021/05/10 06:32:04;;;;;;;3.33;2.27;;;;;;;11.54;63.00;101645.80;1678611;83;21146;-42
2021/05/10 06:34:31;;;;;;;6.80;3.42;;;;;;;11.61;62.01;101653.47;1681289;83;21193;-41
2021/05/10 06:36:59;;;;;;;4.10;2.77;;;;;;;11.69;61.78;101648.67;1682825;84;21586;-42
2021/05/10 06:39:27;;;;;;;5.17;2.83;;;;;;;11.78;60.88;101650.53;1687827;83;21572;-41
2021/05/10 06:41:55;;;;;;;3.05;2.45;;;;;;;11.85;60.04;101654.66;1672855;83;21198;-41
2021/05/10 06:44:22;;;;;;;3.85;1.90;;;;;;;11.96;58.29;101660.88;1704494;81;21181;-41
2021/05/10 06:46:50;;;;;;;3.42;1.98;;;;;;;12.03;57.86;101656.52;1689806;83;21177;-41
2021/05/10 06:49:19;;;;;;;4.47;1.90;;;;;;;12.12;57.28;101652.09;1680819;83;21165;-40
2021/05/10 06:51:47;;;;;;;3.85;1.72;;;;;;;12.24;56.74;101652.45;1691037;84;21580;-42
2021/05/10 06:54:15;;;;;;;1.90;1.32;;;;;;;12.33;54.84;101657.37;1681128;83;21700;-41
2021/05/10 06:56:42;;;;;;;2.10;1.17;;;;;;;12.43;53.01;101661.82;1704819;81;21580;-42
2021/05/10 06:59:10;;;;;;;2.55;1.87;;;;;;;12.50;53.05;101654.77;1677372;84;21182;-41
2021/05/10 07:01:38;;;;;;;2.12;1.30;;;;;;;12.56;52.54;101656.27;1675162;83;21215;-41
2021/05/10 07:04:06;;;;;;;2.08;1.12;;;;;;;12.66;52.61;101659.37;1716543;81;21146;-42
2021/05/10 07:06:33;;;;;;;3.67;1.45;;;;;;;12.73;51.33;101658.13;1679266;83;21154;-41
2021/05/10 07:09:01;;;;;;;2.35;1.32;;;;;;;12.79;48.14;101657.81;1685221;83;21586;-41
2021/05/10 07:11:30;;;;;;;3.77;1.70;;;;;;;12.87;49.01;101655.62;1672283;83;21201;-44
2021/05/10 07:13:57;;;;;;;2.45;1.47;;;;;;;12.93;48.99;101652.66;1671411;83;21133;-41
2021/05/10 07:16:26;;;;;;;2.33;1.35;;;;;;;13.01;48.08;101650.08;1692260;83;21228;-41
2021/05/10 07:18:56;;;;;;;2.83;1.50;;;;;;;13.07;46.84;101651.95;1690435;83;21182;-55
2021/05/10 07:21:24;;;;;;;;;;;;;;;13.15;46.16;101651.56;1682041;83;21340;-41
2021/05/10 07:23:52;;;;;;;2.30;1.30;;;;;;;13.21;45.51;101649.92;1682427;83;20297;-39
2021/05/10 07:26:19;;;;;;;4.62;1.37;;;;;;;13.29;45.81;101649.08;1676692;84;21183;-40
2021/05/10 07:28:48;;;;;;;2.08;1.25;;;;;;;13.37;45.76;101644.19;1679602;83;21162;-41
2021/05/10 07:31:16;;;;;;;4.30;1.47;;;;;;;13.47;45.41;101635.69;1672040;83;21174;-41
2021/05/10 07:33:43;;;;;;;4.92;1.40;;;;;;;13.54;44.76;101636.62;1692773;84;21241;-41
2021/05/10 07:36:11;;;;;;;1.65;0.93;;;;;;;13.61;44.23;101627.80;1712217;81;21459;-41
2021/05/10 07:38:39;;;;;;;2.45;1.45;;;;;;;13.67;43.90;101628.79;1711746;81;21185;-41
2021/05/10 07:41:07;;;;;;;1.67;1.30;;;;;;;13.74;42.81;101631.54;1695706;83;21188;-44
2021/05/10 07:43:35;;;;;;;1.87;1.40;;;;;;;13.80;42.03;101628.99;1681588;84;21165;-41
2021/05/10 07:46:03;;;;;;;1.50;0.93;;;;;;;13.88;40.20;101621.39;1669096;83;21148;-41
2021/05/10 07:48:30;;;;;;;2.58;0.90;;;;;;;13.96;39.20;101618.30;1678132;83;21150;-41
2021/05/10 07:50:59;;;;;;;3.83;1.35;;;;;;;14.03;40.36;101616.53;1694570;83;21594;-43
2021/05/10 07:53:26;;;;;;;1.85;0.95;;;;;;;14.14;40.06;101612.42;1699270;83;21287;-44
2021/05/10 07:55:54;;;;;;;1.20;0.82;;;;;;;14.20;40.27;101612.92;1716088;82;21168;-43
2021/05/10 07:58:24;;;;;;;1.55;0.80;;;;;;;14.27;38.61;101606.75;1678082;83;21699;-43
2021/05/10 08:00:56;;;;;;;3.20;1.57;;;;;;;14.33;36.63;101610.41;1710310;83;21185;-44
2021/05/10 08:03:26;;;;;;;1.37;0.82;;;;;;;14.37;36.35;101607.95;1694833;83;21628;-44
2021/05/10 08:05:52;;;;;;;1.15;1.00;;;;;;;14.40;37.03;101605.09;1682937;83;21168;-44
2021/05/10 08:08:23;;;;;;;1.00;0.80;;;;;;;14.46;37.40;101608.79;1669457;84;21283;-45
2021/05/10 08:10:52;;;;;;;1.10;0.80;;;;;;;14.52;38.03;101612.94;1675023;83;21172;-44
2021/05/10 08:13:20;;;;;;;1.50;0.93;;;;;;;14.59;37.55;101614.80;1697166;82;21204;-42
2021/05/10 08:15:49;;;;;;;1.07;0.78;;;;;;;14.63;37.14;101611.00;1706644;82;21319;-42
2021/05/10 08:18:17;;;;;;;2.50;1.72;;;;;;;14.69;36.07;101602.58;1695499;82;21154;-41
2021/05/10 08:20:45;;;;;;;1.00;0.75;;;;;;;14.74;37.02;101604.55;1699343;82;21161;-43
2021/05/10 08:23:13;;;;;;;2.05;0.80;;;;;;;14.80;37.58;101606.00;1709624;83;21190;-40
2021/05/10 08:25:44;;;;;;;0.93;0.80;;;;;;;14.86;38.60;101602.45;1711285;83;21185;-41
2021/05/10 08:28:12;;;;;;;1.75;1.27;;;;;;;14.92;37.18;101602.59;1703064;83;21176;-42
2021/05/10 08:30:40;;;;;;;2.60;1.32;;;;;;;14.98;34.49;101600.02;1706770;82;21196;-42
2021/05/10 08:33:08;;;;;;;1.67;0.82;;;;;;;15.01;33.82;101598.00;1711028;82;21170;-40
2021/05/10 08:35:36;;;;;;;1.52;1.00;;;;;;;15.03;33.66;101592.55;1702523;82;21194;-43
2021/05/10 08:38:04;;;;;;;1.30;0.82;;;;;;;15.05;32.87;101590.64;1704127;83;21126;-43
2021/05/10 08:40:32;;;;;;;1.30;0.90;;;;;;;15.06;33.46;101585.64;1705055;81;21641;-45
2021/05/10 08:42:59;;;;;;;1.67;0.88;;;;;;;15.07;32.56;101582.02;1710962;81;21558;-45
2021/05/10 08:45:28;;;;;;;1.35;0.93;;;;;;;15.08;32.99;101567.62;1668489;83;21368;-43
2021/05/10 08:48:00;;;;;;;1.12;0.88;;;;;;;15.12;33.32;101562.46;1672577;83;21188;-43
2021/05/10 08:50:29;;;;;;;1.77;0.80;;;;;;;15.18;33.70;101567.94;1680182;83;21186;-44
2021/05/10 08:52:56;;;;;;;1.98;0.90;;;;;;;15.26;33.72;101564.30;1717666;81;21197;-42
2021/05/10 08:55:24;;;;;;;3.45;1.42;;;;;;;15.32;32.86;101555.39;1687011;83;21637;-43
2021/05/10 08:57:52;;;;;;;2.60;1.10;;;;;;;15.39;32.85;101555.00;1690033;84;21242;-46
2021/05/10 09:00:22;;;;;;;2.37;1.20;;;;;;;15.44;34.83;101553.74;1686486;82;21149;-43
2021/05/10 09:02:49;;;;;;;2.60;1.10;;;;;;;15.50;31.59;101553.87;1683027;83;21630;-43
2021/05/10 09:05:19;;;;;;;2.75;1.10;;;;;;;15.54;33.81;101544.14;1657313;84;21206;-43
2021/05/10 09:08:05;;;;;;;2.95;1.50;;;;;;;15.59;35.34;101538.00;1684858;82;21633;-43
2021/05/10 09:10:33;;;;;;;3.22;1.37;;;;;;;15.68;36.95;101539.27;1690647;83;21577;-43
2021/05/10 09:13:00;;;;;;;2.35;1.45;;;;;;;15.78;37.43;101536.89;1697576;82;21644;-45
2021/05/10 09:15:33;;;;;;;1.72;1.07;;;;;;;15.87;36.75;101536.77;1683848;84;21171;-46
2021/05/10 09:18:06;;;;;;;1.77;1.15;;;;;;;15.96;37.34;101537.05;1692287;83;21588;-43
2021/05/10 09:20:37;;;;;;;3.08;1.30;;;;;;;16.04;34.45;101537.89;1691906;82;21177;-44
2021/05/10 09:23:14;;;;;;;1.60;1.07;;;;;;;16.10;36.38;101533.93;1693012;83;21145;-44
2021/05/10 09:25:44;;;;;;;2.22;1.25;;;;;;;16.14;36.41;101540.84;1692249;83;21573;-42
2021/05/10 09:28:19;;;;;;;1.52;1.30;;;;;;;16.20;35.90;101537.74;1706071;83;21624;-44
2021/05/10 09:30:53;;;;;;;2.33;1.37;;;;;;;16.24;35.51;101532.55;1683869;83;21161;-45
2021/05/10 09:33:25;;;;;;;2.45;1.40;;;;;;;16.31;36.19;101532.53;1705558;83;21165;-40
2021/05/10 09:35:56;;;;;;;2.20;1.27;;;;;;;16.34;34.91;101525.59;1684643;83;21169;-47
2021/05/10 09:38:26;;;;;;;2.10;1.07;;;;;;;16.40;34.92;101519.83;1678316;83;21153;-46
2021/05/10 09:40:59;;;;;;;1.15;1.00;;;;;;;16.44;33.76;101524.50;1687170;84;21187;-46
2021/05/10 09:43:38;;;;;;;1.72;0.95;;;;;;;16.47;32.41;101518.91;1688131;82;21193;-46
2021/05/10 09:46:12;;;;;;;0.80;0.75;;;;;;;16.44;32.20;101515.94;1681292;83;21149;-42
2021/05/10 09:48:44;;;;;;;0.93;0.80;;;;;;;16.39;31.55;101506.45;1674075;83;21516;-43
2021/05/10 09:51:16;;;;;;;1.57;0.95;;;;;;;16.33;31.24;101508.20;1697883;83;21618;-43
2021/05/10 09:53:50;;;;;;;1.95;1.10;;;;;;;16.32;32.09;101509.17;1709239;82;21173;-43
2021/05/10 09:59:02;;;;;;;2.67;1.20;;;;;;;16.29;31.51;101499.96;1698315;83;21204;-44
2021/05/10 10:01:44;;;;;;;1.98;0.98;;;;;;;16.30;31.59;101497.64;1682974;83;21172;-44
2021/05/10 10:04:14;;;;;;;5.97;4.78;;;;;;;16.34;32.32;101495.14;1687011;83;21185;-45
2021/05/10 10:06:42;;;;;;;3.17;1.62;;;;;;;16.40;33.69;101490.22;1689090;82;21145;-43
2021/05/10 10:09:11;;;;;;;1.90;1.10;;;;;;;16.49;34.00;101492.76;1715274;81;21344;-43
2021/05/10 10:11:39;;;;;;;1.82;1.27;;;;;;;16.58;33.04;101475.10;1672676;83;21169;-44
2021/05/10 10:14:10;;;;;;;3.40;1.27;;;;;;;16.66;31.65;101479.02;1674885;83;21151;-44
2021/05/10 10:16:37;;;;;;;1.80;1.15;;;;;;;16.68;30.88;101476.20;1700471;83;21137;-43
2021/05/10 10:19:07;;;;;;;1.35;1.00;;;;;;;16.70;32.77;101476.96;1680525;83;21194;-43
2021/05/10 10:21:37;;;;;;;2.60;1.10;;;;;;;16.75;32.28;101472.12;1684546;83;21146;-47
2021/05/10 10:24:06;;;;;;;1.85;1.20;;;;;;;16.85;33.67;101480.47;1664156;83;21695;-47
2021/05/10 10:26:37;;;;;;;;;;;;;;;16.93;34.58;101476.75;1675404;84;21672;-47
2021/05/10 10:29:10;;;;;;;1.00;0.90;;;;;;;17.02;33.66;101472.08;1683371;83;20182;-47
2021/05/10 10:31:46;;;;;;;1.20;0.82;;;;;;;17.10;33.39;101472.88;1711849;82;21692;-44
2021/05/10 10:34:35;;;;;;;1.30;0.95;;;;;;;17.16;33.24;101466.19;1686915;83;21567;-46
2021/05/10 10:37:04;;;;;;;2.00;1.32;;;;;;;17.23;34.05;101459.40;1694864;83;21173;-44
2021/05/10 10:39:34;;;;;;;1.67;1.25;;;;;;;17.26;30.99;101449.74;1682311;84;21201;-43
2021/05/10 10:42:06;;;;;;;1.80;1.07;;;;;;;17.29;31.92;101455.80;1686080;82;21236;-42
2021/05/10 10:47:47;;;;;;;1.90;1.37;;;;;;;17.38;29.50;101445.31;1764307;79;23493;-44
2021/05/10 10:50:16;;;;;;;1.85;1.12;;;;;;;17.31;29.06;101444.88;1746576;80;21161;-44
2021/05/10 10:52:55;;;;;;;2.25;1.12;;;;;;;17.31;31.54;101434.09;1741416;82;21134;-45
2021/05/10 10:55:41;;;;;;;1.80;1.20;;;;;;;17.37;30.87;101430.13;1743740;80;21150;-44
2021/05/10 10:58:19;;;;;;;2.92;1.27;;;;;;;17.40;29.68;101430.75;1745714;82;21612;-42
2021/05/10 11:01:07;;;;;;;2.67;1.52;;;;;;;17.43;30.80;101433.71;1744059;82;21630;-42
2021/05/10 11:03:37;;;;;;;2.30;1.47;;;;;;;17.45;30.37;101426.37;1746529;81;21130;-45
2021/05/10 11:06:07;;;;;;;3.80;2.17;;;;;;;17.47;33.23;101418.55;1747922;80;21173;-45
2021/05/10 11:08:50;;;;;;;2.17;1.47;;;;;;;17.54;31.90;101414.94;1742289;80;21177;-44
2021/05/10 11:11:39;;;;;;;2.50;1.82;;;;;;;17.58;30.47;101419.11;1746782;80;21149;-44
2021/05/10 11:14:14;;;;;;;2.12;1.60;;;;;;;17.63;30.22;101414.23;1747948;80;21562;-42
2021/05/10 11:16:51;;;;;;;2.17;1.30;;;;;;;17.66;30.35;101405.06;1746027;80;21142;-41
2021/05/10 11:19:35;;;;;;;3.50;1.37;;;;;;;17.69;31.62;101404.37;1704994;82;21274;-43
2021/05/10 11:22:35;;;;;;;2.50;1.20;;;;;;;17.74;30.94;101408.93;1742044;80;21157;-46
2021/05/10 11:25:39;;;;;;;2.58;1.50;;;;;;;17.77;30.13;101405.64;1746970;80;21489;-44
2021/05/10 11:28:30;;;;;;;2.50;1.67;;;;;;;17.77;29.14;101395.70;1700067;83;21201;-43
2021/05/10 11:31:10;;;;;;;2.67;1.47;;;;;;;17.77;30.16;101393.01;1705688;82;21137;-43
2021/05/10 11:33:58;;;;;;;3.08;1.20;;;;;;;17.81;30.07;101383.73;1720460;82;21172;-41
2021/05/10 11:36:29;;;;;;;2.92;1.40;;;;;;;17.88;30.10;101389.53;1713942;82;21126;-44
2021/05/10 11:38:58;;;;;;;;;;;;;;;17.94;30.07;101385.02;1707433;82;21125;-43
2021/05/10 11:41:37;;;;;;;1.30;1.10;;;;;;;18.02;29.95;101383.97;1704776;82;20154;-43
2021/05/10 11:44:07;;;;;;;3.50;1.35;;;;;;;18.08;30.12;101378.59;1709616;82;21141;-43
2021/05/10 11:46:44;;;;;;;1.20;1.00;;;;;;;18.14;31.23;101373.59;1699929;82;21185;-45
2021/05/10 11:49:36;;;;;;;2.45;1.50;;;;;;;18.16;28.74;101370.27;1698828;82;21697;-41
2021/05/10 11:52:20;;;;;;;2.47;1.45;;;;;;;18.17;29.50;101371.15;1694473;82;21150;-44